createdAt,value
2018-06-22T00:01:31.819Z,31.24
2018-06-22T00:04:03.893Z,31.49
2018-06-22T00:06:37.078Z,32.43
2018-06-22T00:09:11.896Z,31.96
2018-06-22T00:11:44.026Z,31.28
2018-06-22T00:14:16.707Z,32.03
2018-06-22T00:16:49.388Z,31.01
2018-06-22T00:19:22.393Z,32.00
2018-06-22T00:24:31.818Z,31.48
2018-06-22T00:27:04.779Z,31.96
2018-06-22T00:29:37.915Z,31.02
2018-06-22T00:32:10.401Z,31.15
2018-06-22T00:34:42.875Z,31.54
2018-06-22T00:37:15.083Z,32.66
2018-06-22T00:39:48.072Z,30.82
2018-06-22T00:42:20.144Z,30.85
2018-06-22T00:44:53.089Z,31.27
2018-06-22T00:47:25.529Z,31.15
2018-06-22T00:49:58.656Z,31.20
2018-06-22T00:52:31.346Z,32.44
2018-06-22T00:55:03.976Z,33.06
2018-06-22T00:57:36.627Z,32.71
2018-06-22T01:00:08.968Z,32.45
2018-06-22T01:02:41.047Z,32.82
2018-06-22T01:05:13.826Z,32.38
2018-06-22T01:07:45.930Z,32.06
2018-06-22T01:10:18.713Z,32.08
2018-06-22T01:12:51.277Z,32.62
2018-06-22T01:15:24.150Z,32.87
2018-06-22T01:17:56.507Z,32.10
2018-06-22T01:20:29.902Z,32.37
2018-06-22T01:23:01.979Z,33.00
2018-06-22T01:25:35.281Z,32.61
2018-06-22T01:28:07.720Z,32.73
2018-06-22T01:30:40.005Z,32.18
2018-06-22T01:33:12.100Z,31.20
2018-06-22T01:35:45.541Z,31.54
2018-06-22T01:38:18.685Z,31.73
2018-06-22T01:40:51.288Z,33.38
2018-06-22T01:43:23.960Z,32.44
2018-06-22T01:45:57.213Z,33.11
2018-06-22T01:48:30.000Z,33.26
2018-06-22T01:51:02.830Z,32.90
2018-06-22T01:53:35.463Z,32.70
2018-06-22T01:56:08.394Z,33.39
2018-06-22T01:58:41.848Z,32.62
2018-06-22T02:01:14.497Z,32.10
2018-06-22T02:03:47.015Z,32.39
2018-06-22T02:06:19.540Z,31.99
2018-06-22T02:08:51.741Z,32.51
2018-06-22T02:11:24.700Z,32.34
2018-06-22T02:13:56.995Z,32.03
2018-06-22T02:16:31.659Z,31.74
2018-06-22T02:19:04.613Z,32.17
2018-06-22T02:21:36.994Z,31.34
2018-06-22T02:24:09.430Z,32.10
2018-06-22T02:26:41.764Z,31.62
2018-06-22T02:29:13.936Z,31.93
2018-06-22T02:31:46.587Z,30.88
2018-06-22T02:34:19.160Z,32.33
2018-06-22T02:36:51.535Z,32.83
2018-06-22T02:39:24.156Z,32.84
2018-06-22T02:41:57.012Z,32.24
2018-06-22T02:44:29.294Z,31.94
2018-06-22T02:47:01.598Z,33.17
2018-06-22T02:49:33.501Z,31.81
2018-06-22T02:52:06.347Z,33.00
2018-06-22T02:54:39.095Z,32.70
2018-06-22T02:57:11.410Z,32.68
2018-06-22T02:59:44.601Z,32.96
2018-06-22T03:02:17.098Z,32.91
2018-06-22T03:04:49.786Z,32.08
2018-06-22T03:07:22.511Z,32.83
2018-06-22T03:09:55.048Z,32.58
2018-06-22T03:12:27.503Z,33.21
2018-06-22T03:15:00.288Z,32.94
2018-06-22T03:17:32.619Z,31.92
2018-06-22T03:20:05.000Z,32.72
2018-06-22T03:22:37.250Z,32.94
2018-06-22T03:25:09.867Z,31.95
2018-06-22T03:27:42.769Z,32.89
2018-06-22T03:30:15.284Z,33.35
2018-06-22T03:32:48.037Z,32.51
2018-06-22T03:35:20.896Z,31.75
2018-06-22T03:37:53.351Z,32.76
2018-06-22T03:40:26.306Z,32.56
2018-06-22T03:42:59.213Z,31.92
2018-06-22T03:45:31.877Z,31.60
2018-06-22T03:48:04.845Z,32.51
2018-06-22T03:50:37.141Z,32.21
2018-06-22T03:53:09.217Z,32.31
2018-06-22T03:55:42.046Z,32.35
2018-06-22T03:58:14.377Z,32.42
2018-06-22T04:00:47.009Z,33.06
2018-06-22T04:03:20.038Z,33.01
2018-06-22T04:05:53.771Z,32.55
2018-06-22T04:08:26.136Z,32.36
2018-06-22T04:10:58.944Z,33.70
2018-06-22T04:13:31.467Z,32.76
2018-06-22T04:16:03.798Z,32.28
2018-06-22T04:18:36.740Z,32.67
2018-06-22T04:21:09.708Z,33.55
2018-06-22T04:23:42.516Z,32.79
2018-06-22T04:26:15.078Z,32.55
2018-06-22T04:28:48.000Z,33.32
2018-06-22T04:31:20.357Z,33.54
2018-06-22T04:33:52.986Z,33.09
2018-06-22T04:36:25.235Z,33.17
2018-06-22T04:38:57.614Z,32.96
2018-06-22T04:41:30.623Z,33.05
2018-06-22T04:44:03.786Z,33.37
2018-06-22T04:46:36.490Z,32.69
2018-06-22T04:49:09.281Z,31.01
2018-06-22T04:51:41.605Z,32.93
2018-06-22T04:54:14.252Z,32.88
2018-06-22T04:56:47.740Z,33.14
2018-06-22T04:59:20.797Z,33.34
2018-06-22T05:01:53.951Z,33.42
2018-06-22T05:04:26.785Z,33.50
2018-06-22T05:06:59.996Z,33.93
2018-06-22T05:09:32.393Z,34.31
2018-06-22T05:12:04.443Z,33.60
2018-06-22T05:14:36.777Z,35.21
2018-06-22T05:17:09.460Z,34.38
2018-06-22T05:19:41.856Z,32.89
2018-06-22T05:22:14.847Z,34.23
2018-06-22T05:24:47.457Z,33.98
2018-06-22T05:27:19.908Z,34.38
2018-06-22T05:29:52.866Z,33.63
2018-06-22T05:32:25.915Z,33.61
2018-06-22T05:34:58.968Z,33.62
2018-06-22T05:37:31.580Z,33.16
2018-06-22T05:40:04.197Z,33.54
2018-06-22T05:42:36.468Z,32.96
2018-06-22T05:45:09.410Z,33.88
2018-06-22T05:47:41.756Z,33.53
2018-06-22T05:50:14.866Z,33.34
2018-06-22T05:52:47.665Z,32.80
2018-06-22T05:55:20.743Z,33.93
2018-06-22T05:57:52.783Z,33.11
2018-06-22T06:00:25.226Z,34.02
2018-06-22T06:02:57.629Z,34.35
2018-06-22T06:05:30.235Z,34.11
2018-06-22T06:08:02.858Z,34.11
2018-06-22T06:10:36.254Z,32.79
2018-06-22T06:13:08.772Z,33.22
2018-06-22T06:15:41.437Z,32.73
2018-06-22T06:18:13.633Z,32.60
2018-06-22T06:20:46.350Z,33.11
2018-06-22T06:23:18.772Z,33.39
2018-06-22T06:25:51.274Z,33.35
2018-06-22T06:28:23.424Z,32.96
2018-06-22T06:30:57.729Z,32.28
2018-06-22T06:33:34.722Z,32.60
2018-06-22T06:36:14.310Z,32.92
2018-06-22T06:38:47.033Z,32.07
2018-06-22T06:41:20.516Z,33.05
2018-06-22T06:43:58.623Z,32.19
2018-06-22T06:46:40.509Z,32.26
2018-06-22T06:49:19.382Z,32.67
2018-06-22T06:51:57.899Z,32.17
2018-06-22T06:54:32.564Z,31.73
2018-06-22T06:57:04.969Z,31.61
2018-06-22T06:59:37.043Z,31.10
2018-06-22T07:02:09.895Z,31.11
2018-06-22T07:04:42.455Z,30.30
2018-06-22T07:07:15.148Z,30.42
2018-06-22T07:09:47.951Z,30.82
2018-06-22T07:12:20.088Z,31.53
2018-06-22T07:14:52.326Z,30.76
2018-06-22T07:17:24.584Z,30.86
2018-06-22T07:19:57.295Z,29.98
2018-06-22T07:22:29.640Z,30.29
2018-06-22T07:25:02.340Z,30.40
2018-06-22T07:27:34.813Z,30.36
2018-06-22T07:30:07.811Z,29.90
2018-06-22T07:32:40.004Z,29.04
2018-06-22T07:35:12.740Z,30.17
2018-06-22T07:37:45.702Z,29.81
2018-06-22T07:40:18.253Z,30.58
2018-06-22T07:42:51.471Z,30.50
2018-06-22T07:45:24.291Z,30.39
2018-06-22T07:47:57.077Z,30.63
2018-06-22T07:50:32.817Z,30.82
2018-06-22T07:53:05.698Z,30.51
2018-06-22T07:55:38.007Z,29.67
2018-06-22T07:58:13.931Z,29.74
2018-06-22T08:00:46.694Z,29.86
2018-06-22T08:03:19.327Z,29.58
2018-06-22T08:05:51.758Z,29.59
2018-06-22T08:08:24.781Z,29.74
2018-06-22T08:11:01.022Z,29.71
2018-06-22T08:13:33.459Z,29.73
2018-06-22T08:16:07.597Z,30.00
2018-06-22T08:18:41.474Z,29.83
2018-06-22T08:21:14.320Z,30.47
2018-06-22T08:23:46.963Z,29.69
2018-06-22T08:26:20.689Z,30.67
2018-06-22T08:28:53.413Z,29.49
2018-06-22T08:31:26.305Z,29.13
2018-06-22T08:33:59.632Z,30.06
2018-06-22T08:36:32.715Z,29.90
2018-06-22T08:39:07.421Z,28.82
2018-06-22T08:41:40.139Z,29.13
2018-06-22T08:44:13.360Z,28.66
2018-06-22T08:46:46.083Z,29.88
2018-06-22T08:49:18.838Z,28.94
2018-06-22T08:51:51.196Z,28.67
2018-06-22T08:54:23.587Z,28.72
2018-06-22T08:56:56.232Z,28.68
2018-06-22T08:59:29.160Z,28.55
2018-06-22T09:02:02.503Z,28.99
2018-06-22T09:04:34.834Z,28.37
2018-06-22T09:07:07.355Z,28.62
2018-06-22T09:09:40.205Z,28.02
2018-06-22T09:12:12.970Z,27.13
2018-06-22T09:14:45.445Z,27.19
2018-06-22T09:17:18.388Z,27.72
2018-06-22T09:19:51.031Z,27.12
2018-06-22T09:22:23.488Z,27.44
2018-06-22T09:24:56.762Z,27.16
2018-06-22T09:27:29.423Z,26.75
2018-06-22T09:30:03.236Z,26.18
2018-06-22T09:32:36.001Z,25.75
2018-06-22T09:35:10.471Z,26.38
2018-06-22T09:37:43.122Z,25.30
2018-06-22T09:40:15.980Z,25.84
2018-06-22T09:42:49.436Z,26.85
2018-06-22T09:45:22.792Z,24.48
2018-06-22T09:47:57.586Z,25.80
2018-06-22T09:50:30.695Z,25.76
2018-06-22T09:53:03.974Z,25.43
2018-06-22T09:55:36.879Z,24.39
2018-06-22T09:58:09.127Z,24.12
2018-06-22T10:00:46.827Z,23.78
2018-06-22T10:03:19.892Z,24.40
2018-06-22T10:05:53.104Z,25.27
2018-06-22T10:08:26.487Z,24.48
2018-06-22T10:10:59.388Z,23.76
2018-06-22T10:13:32.595Z,24.58
2018-06-22T10:16:06.488Z,23.66
2018-06-22T10:18:38.588Z,24.51
2018-06-22T10:21:11.623Z,24.39
2018-06-22T10:23:44.101Z,24.70
2018-06-22T10:26:17.301Z,24.18
2018-06-22T10:28:56.081Z,24.58
2018-06-22T10:31:29.361Z,25.37
2018-06-22T10:34:02.353Z,25.92
2018-06-22T10:36:34.689Z,25.21
2018-06-22T10:39:09.810Z,25.65
2018-06-22T10:41:43.364Z,25.37
2018-06-22T10:44:16.564Z,25.48
2018-06-22T10:46:49.334Z,25.02
2018-06-22T10:49:22.142Z,24.38
2018-06-22T10:51:55.401Z,26.06
2018-06-22T10:54:28.365Z,25.86
2018-06-22T10:57:01.665Z,25.50
2018-06-22T10:59:34.797Z,25.95
2018-06-22T11:02:08.014Z,25.37
2018-06-22T11:04:40.656Z,26.12
2018-06-22T11:07:13.646Z,25.25
2018-06-22T11:09:46.069Z,25.04
2018-06-22T11:12:19.145Z,24.79
2018-06-22T11:14:51.751Z,25.23
2018-06-22T11:17:24.522Z,25.91
2018-06-22T11:19:57.006Z,24.94
2018-06-22T11:22:30.308Z,25.49
2018-06-22T11:25:03.135Z,25.33
2018-06-22T11:27:36.615Z,25.83
2018-06-22T11:30:09.304Z,26.05
2018-06-22T11:32:42.273Z,25.31
2018-06-22T11:35:14.546Z,25.87
2018-06-22T11:37:46.882Z,25.04
2018-06-22T11:40:19.237Z,25.09
2018-06-22T11:42:51.708Z,25.03
2018-06-22T11:45:24.072Z,25.39
2018-06-22T11:47:57.170Z,25.06
2018-06-22T11:50:30.047Z,24.79
2018-06-22T11:53:03.860Z,24.56
2018-06-22T11:55:37.344Z,24.07
2018-06-22T11:58:09.605Z,24.27
2018-06-22T12:00:42.894Z,24.12
2018-06-22T12:03:15.389Z,25.00
2018-06-22T12:05:47.979Z,25.00
2018-06-22T12:08:21.191Z,25.57
2018-06-22T12:10:54.199Z,25.28
2018-06-22T12:13:27.877Z,24.40
2018-06-22T12:16:01.178Z,25.30
2018-06-22T12:18:34.636Z,24.36
2018-06-22T12:21:08.143Z,25.13
2018-06-22T12:23:41.606Z,26.25
2018-06-22T12:26:15.095Z,25.11
2018-06-22T12:28:48.706Z,25.89
2018-06-22T12:31:21.530Z,26.04
2018-06-22T12:33:54.951Z,24.26
2018-06-22T12:36:28.127Z,23.85
2018-06-22T12:39:01.053Z,24.77
2018-06-22T12:41:34.082Z,24.74
2018-06-22T12:44:07.578Z,23.98
2018-06-22T12:46:40.858Z,22.93
2018-06-22T12:49:14.146Z,23.40
2018-06-22T12:51:47.057Z,23.40
2018-06-22T12:54:20.034Z,23.01
2018-06-22T12:56:52.601Z,24.19
2018-06-22T12:59:25.704Z,23.90
2018-06-22T13:01:59.117Z,25.41
2018-06-22T13:04:32.176Z,24.59
2018-06-22T13:07:05.677Z,25.69
2018-06-22T13:09:40.348Z,24.69
2018-06-22T13:12:13.079Z,25.45
2018-06-22T13:14:47.366Z,24.97
2018-06-22T13:17:20.380Z,25.29
2018-06-22T13:19:53.765Z,25.05
2018-06-22T13:22:26.554Z,25.35
2018-06-22T13:24:59.911Z,25.26
2018-06-22T13:27:33.317Z,25.52
2018-06-22T13:30:05.804Z,25.47
2018-06-22T13:32:37.730Z,25.85
2018-06-22T13:35:10.913Z,25.65
2018-06-22T13:37:43.567Z,26.64
2018-06-22T13:40:24.308Z,26.40
2018-06-22T13:42:56.510Z,26.26
2018-06-22T13:45:28.428Z,26.13
2018-06-22T13:48:01.280Z,26.45
2018-06-22T13:50:33.781Z,26.68
2018-06-22T13:53:06.339Z,26.82
2018-06-22T13:55:39.676Z,28.33
2018-06-22T13:58:12.718Z,27.45
2018-06-22T14:00:45.773Z,26.89
2018-06-22T14:03:20.580Z,27.67
2018-06-22T14:05:57.910Z,27.07
2018-06-22T14:08:30.719Z,27.57
2018-06-22T14:11:03.255Z,27.20
2018-06-22T14:13:35.936Z,28.16
2018-06-22T14:16:08.530Z,28.15
2018-06-22T14:18:40.876Z,26.96
2018-06-22T14:21:13.741Z,27.79
2018-06-22T14:23:47.906Z,27.06
2018-06-22T14:26:20.398Z,27.60
2018-06-22T14:28:53.035Z,28.22
2018-06-22T14:31:25.768Z,28.16
2018-06-22T14:33:58.115Z,28.77
2018-06-22T14:36:30.591Z,28.31
2018-06-22T14:39:03.176Z,27.90
2018-06-22T14:41:36.157Z,27.52
2018-06-22T14:44:08.784Z,27.89
2018-06-22T14:46:41.180Z,27.56
2018-06-22T14:49:14.136Z,28.04
2018-06-22T14:51:46.928Z,27.60
2018-06-22T14:54:24.244Z,29.63
2018-06-22T14:57:01.564Z,28.98
2018-06-22T14:59:38.207Z,28.98
2018-06-22T15:02:15.509Z,29.73
2018-06-22T15:04:52.595Z,29.65
2018-06-22T15:07:29.263Z,30.04
2018-06-22T15:10:02.238Z,30.24
2018-06-22T15:12:34.618Z,29.46
2018-06-22T15:15:09.282Z,29.36
2018-06-22T15:17:46.499Z,29.16
2018-06-22T15:20:19.151Z,30.20
2018-06-22T15:22:51.805Z,29.25
2018-06-22T15:25:24.865Z,29.49
2018-06-22T15:27:57.179Z,29.93
2018-06-22T15:30:30.234Z,30.15
2018-06-22T15:33:03.334Z,30.09
2018-06-22T15:35:40.838Z,29.34
2018-06-22T15:39:21.155Z,30.69
2018-06-22T15:41:58.999Z,29.32
2018-06-22T15:44:36.240Z,27.98
2018-06-22T15:47:13.347Z,27.71
2018-06-22T15:49:50.251Z,27.08
2018-06-22T15:52:27.702Z,26.30
2018-06-22T15:55:04.927Z,25.18
2018-06-22T15:57:37.997Z,24.98
2018-06-22T16:00:12.634Z,25.86
2018-06-22T16:02:49.874Z,25.25
2018-06-22T16:05:22.933Z,24.69
2018-06-22T16:07:55.813Z,24.07
2018-06-22T16:10:28.552Z,24.89
2018-06-22T16:13:01.427Z,24.80
2018-06-22T16:15:38.961Z,24.35
2018-06-22T16:18:15.957Z,24.46
2018-06-22T16:20:53.473Z,24.27
2018-06-22T16:23:30.736Z,23.69
2018-06-22T16:26:08.191Z,24.36
2018-06-22T16:28:40.370Z,23.66
2018-06-22T16:31:12.452Z,24.58
2018-06-22T16:33:55.222Z,23.96
2018-06-22T16:36:29.173Z,24.93
2018-06-22T16:39:02.480Z,24.65
2018-06-22T16:41:35.209Z,23.99
2018-06-22T16:44:08.656Z,23.99
2018-06-22T16:46:41.342Z,23.47
2018-06-22T16:49:14.164Z,24.08
2018-06-22T16:51:47.022Z,23.72
2018-06-22T16:54:19.964Z,23.96
2018-06-22T16:56:53.304Z,23.73
2018-06-22T16:59:26.183Z,23.17
2018-06-22T17:01:58.676Z,24.53
2018-06-22T17:04:32.161Z,24.20
2018-06-22T17:07:08.959Z,24.57
2018-06-22T17:09:46.049Z,24.20
2018-06-22T17:12:23.287Z,23.85
2018-06-22T17:15:00.428Z,23.79
2018-06-22T17:17:37.810Z,21.96
2018-06-22T17:20:10.372Z,22.55
2018-06-22T17:22:44.143Z,21.87
2018-06-22T17:25:16.710Z,23.01
2018-06-22T17:27:49.537Z,22.86
2018-06-22T17:30:22.298Z,22.30
2018-06-22T17:32:54.722Z,23.08
2018-06-22T17:35:27.980Z,23.51
2018-06-22T17:38:00.553Z,24.29
2018-06-22T17:40:33.694Z,23.25
2018-06-22T17:43:06.225Z,22.38
2018-06-22T17:45:39.209Z,22.80
2018-06-22T17:48:11.979Z,22.07
2018-06-22T17:50:44.483Z,22.81
2018-06-22T17:53:17.098Z,22.83
2018-06-22T17:55:49.741Z,22.82
2018-06-22T17:58:22.439Z,22.55
2018-06-22T18:00:59.724Z,22.35
2018-06-22T18:03:36.563Z,22.13
2018-06-22T18:06:13.469Z,22.83
2018-06-22T18:08:49.597Z,22.10
2018-06-22T18:11:26.766Z,23.13
2018-06-22T18:13:59.996Z,21.90
2018-06-22T18:16:33.007Z,22.15
2018-06-22T18:19:05.710Z,22.18
2018-06-22T18:21:38.449Z,23.76
2018-06-22T18:24:11.049Z,23.58
2018-06-22T18:26:44.210Z,23.06
2018-06-22T18:29:16.849Z,24.57
2018-06-22T18:31:49.513Z,23.33
2018-06-22T18:34:22.656Z,23.96
2018-06-22T18:36:55.197Z,23.74
2018-06-22T18:39:27.651Z,24.63
2018-06-22T18:42:00.690Z,24.06
2018-06-22T18:44:33.573Z,24.74
2018-06-22T18:47:06.427Z,24.40
2018-06-22T18:49:39.071Z,24.46
2018-06-22T18:52:16.894Z,24.34
2018-06-22T18:54:54.269Z,23.86
2018-06-22T18:57:31.753Z,24.57
2018-06-22T19:00:10.229Z,23.60
2018-06-22T19:02:47.656Z,24.21
2018-06-22T19:05:20.614Z,24.35
2018-06-22T19:07:53.009Z,24.34
2018-06-22T19:10:25.634Z,24.16
2018-06-22T19:12:58.969Z,24.58
2018-06-22T19:15:31.599Z,24.96
2018-06-22T19:18:04.460Z,24.23
2018-06-22T19:20:37.215Z,24.87
2018-06-22T19:23:10.037Z,25.43
2018-06-22T19:25:43.042Z,25.07
2018-06-22T19:28:15.477Z,26.16
2018-06-22T19:30:48.865Z,25.59
2018-06-22T19:33:21.805Z,25.17
2018-06-22T19:35:54.229Z,24.93
2018-06-22T19:41:17.684Z,26.14
2018-06-22T19:43:54.305Z,26.53
2018-06-22T19:46:31.708Z,26.10
2018-06-22T19:49:09.090Z,27.34
2018-06-22T19:51:46.679Z,26.06
2018-06-22T19:54:19.140Z,26.31
2018-06-22T19:56:51.275Z,26.52
2018-06-22T19:59:23.567Z,26.61
2018-06-22T20:01:56.717Z,26.25
2018-06-22T20:04:29.838Z,25.73
2018-06-22T20:07:01.979Z,27.15
2018-06-22T20:09:34.205Z,26.76
2018-06-22T20:12:06.519Z,26.62
2018-06-22T20:14:39.025Z,26.42
2018-06-22T20:17:11.501Z,27.12
2018-06-22T20:19:44.508Z,26.68
2018-06-22T20:22:16.835Z,27.53
2018-06-22T20:24:53.524Z,27.19
2018-06-22T20:27:25.575Z,26.49
2018-06-22T20:29:57.920Z,26.91
2018-06-22T20:32:30.246Z,27.15
2018-06-22T20:35:07.561Z,28.73
2018-06-22T20:37:53.883Z,28.15
2018-06-22T20:40:30.337Z,27.68
2018-06-22T20:43:07.211Z,27.44
2018-06-22T20:45:56.308Z,28.35
2018-06-22T20:48:32.929Z,27.71
2018-06-22T20:51:05.123Z,27.16
2018-06-22T20:53:36.922Z,27.93
2018-06-22T20:56:09.157Z,28.19
2018-06-22T20:58:41.414Z,27.64
2018-06-22T21:01:14.169Z,28.01
2018-06-22T21:03:46.814Z,27.50
2018-06-22T21:06:19.232Z,28.59
2018-06-22T21:08:51.483Z,28.50
2018-06-22T21:11:23.528Z,28.50
2018-06-22T21:13:56.099Z,28.89
2018-06-22T21:16:28.448Z,28.56
2018-06-22T21:19:00.771Z,28.52
2018-06-22T21:21:37.519Z,28.82
2018-06-22T21:24:09.431Z,28.23
2018-06-22T21:26:41.557Z,28.60
2018-06-22T21:29:18.068Z,28.44
2018-06-22T21:31:55.072Z,28.47
2018-06-22T21:34:34.660Z,27.91
2018-06-22T21:37:11.590Z,27.95
2018-06-22T21:39:44.078Z,28.39
2018-06-22T21:42:16.370Z,27.79
2018-06-22T21:44:48.959Z,28.29
2018-06-22T21:47:21.291Z,27.68
2018-06-22T21:49:53.407Z,28.89
2018-06-22T21:52:25.847Z,29.30
2018-06-22T21:54:58.121Z,28.77
2018-06-22T21:57:30.642Z,29.45
2018-06-22T22:00:03.167Z,29.41
2018-06-22T22:02:35.531Z,27.96
2018-06-22T22:05:07.925Z,27.92
2018-06-22T22:07:40.233Z,28.23
2018-06-22T22:10:12.465Z,28.72
2018-06-22T22:12:44.286Z,28.16
2018-06-22T22:15:16.893Z,29.60
2018-06-22T22:17:49.833Z,29.09
2018-06-22T22:20:21.712Z,29.71
2018-06-22T22:22:53.622Z,29.39
2018-06-22T22:25:26.222Z,29.15
2018-06-22T22:27:58.814Z,29.38
2018-06-22T22:30:31.404Z,28.89
2018-06-22T22:33:03.260Z,29.54
2018-06-22T22:35:35.802Z,30.00
2018-06-22T22:38:08.083Z,30.38
2018-06-22T22:40:40.421Z,29.33
2018-06-22T22:43:12.631Z,29.56
2018-06-22T22:45:45.004Z,30.31
2018-06-22T22:48:17.101Z,30.91
2018-06-22T22:50:49.922Z,30.63
2018-06-22T22:53:22.408Z,31.19
2018-06-22T22:55:54.828Z,30.37
2018-06-22T22:58:27.121Z,30.67
2018-06-22T23:00:59.408Z,31.19
2018-06-22T23:03:31.607Z,29.48
2018-06-22T23:06:05.036Z,30.25
2018-06-22T23:08:37.204Z,30.70
2018-06-22T23:11:10.070Z,31.51
2018-06-22T23:13:42.395Z,30.14
2018-06-22T23:16:15.002Z,30.17
2018-06-22T23:18:47.475Z,30.65
2018-06-22T23:21:20.037Z,30.29
2018-06-22T23:23:52.136Z,31.09
2018-06-22T23:26:24.510Z,30.15
2018-06-22T23:28:56.912Z,30.78
2018-06-22T23:31:29.828Z,30.39
2018-06-22T23:34:02.243Z,30.18
2018-06-22T23:36:34.710Z,31.39
2018-06-22T23:39:09.382Z,31.36
2018-06-22T23:41:41.698Z,30.38
2018-06-22T23:44:13.897Z,31.24
2018-06-22T23:46:46.495Z,31.12
2018-06-22T23:49:19.017Z,31.35
2018-06-22T23:51:51.489Z,30.95
2018-06-22T23:54:24.241Z,30.22
2018-06-22T23:56:56.638Z,31.24
2018-06-22T23:59:29.191Z,30.78
